createdAt,value
2023-10-11T00:00:36.598Z,100526.97
2023-10-11T00:03:19.298Z,100515.72
2023-10-11T00:05:47.885Z,100511.44
2023-10-11T00:08:20.094Z,100521.84
2023-10-11T00:10:55.214Z,100512.31
2023-10-11T00:13:23.462Z,100509.69
2023-10-11T00:15:52.348Z,100518.38
2023-10-11T00:18:23.681Z,100508.88
2023-10-11T00:20:52.352Z,100509.75
2023-10-11T00:23:23.810Z,100500.22
2023-10-11T00:25:51.854Z,100509.72
2023-10-11T00:28:24.415Z,100514.13
2023-10-11T00:30:56.941Z,100508.94
2023-10-11T00:33:37.683Z,100515.00
2023-10-11T00:36:06.743Z,100518.44
2023-10-11T00:38:43.962Z,100510.66
2023-10-11T00:41:20.892Z,100503.75
2023-10-11T00:43:56.427Z,100508.94
2023-10-11T00:46:30.612Z,100505.50
2023-10-11T00:49:05.543Z,100500.31
2023-10-11T00:51:33.231Z,100505.53
2023-10-11T00:54:02.063Z,100501.19
2023-10-11T00:56:33.336Z,100502.06
2023-10-11T00:59:10.207Z,100500.34
2023-10-11T01:01:40.737Z,100493.41
2023-10-11T01:04:10.836Z,100491.69
2023-10-11T01:06:37.972Z,100486.50
2023-10-11T01:09:15.182Z,100483.03
2023-10-11T01:11:42.524Z,100480.47
2023-10-11T01:14:09.898Z,100483.91
2023-10-11T01:16:36.836Z,100491.69
2023-10-11T01:19:09.049Z,100495.16
2023-10-11T01:21:35.589Z,100500.31
2023-10-11T01:24:02.111Z,100495.13
2023-10-11T01:26:29.010Z,100505.53
2023-10-11T01:28:58.043Z,100506.38
2023-10-11T01:31:25.028Z,100502.91
2023-10-11T01:33:53.792Z,100491.69
2023-10-11T01:36:23.157Z,100498.63
2023-10-11T01:38:50.440Z,100501.22
2023-10-11T01:41:24.100Z,100510.72
2023-10-11T01:43:55.146Z,100504.66
2023-10-11T01:46:27.960Z,100493.41
2023-10-11T01:49:02.356Z,100502.06
2023-10-11T01:51:29.035Z,100508.13
2023-10-11T01:54:05.406Z,100513.28
2023-10-11T01:56:32.085Z,100509.00
2023-10-11T01:59:02.377Z,100511.56
2023-10-11T02:01:32.062Z,100502.06
2023-10-11T02:04:01.227Z,100503.78
2023-10-11T02:06:33.605Z,100501.22
2023-10-11T02:09:01.175Z,100494.28
2023-10-11T02:11:30.745Z,100496.88
2023-10-11T02:13:58.951Z,100496.00
2023-10-11T02:16:26.308Z,100496.00
2023-10-11T02:18:56.789Z,100495.16
2023-10-11T02:21:24.881Z,100500.31
2023-10-11T02:23:51.603Z,100497.75
2023-10-11T02:26:18.215Z,100505.53
2023-10-11T02:28:46.325Z,100506.38
2023-10-11T02:31:21.077Z,100510.72
2023-10-11T02:33:52.286Z,100510.69
2023-10-11T02:36:19.757Z,100502.94
2023-10-11T02:38:52.368Z,100503.78
2023-10-11T02:41:26.265Z,100511.59
2023-10-11T02:43:58.803Z,100512.44
2023-10-11T02:46:25.999Z,100503.78
2023-10-11T02:49:07.189Z,100494.25
2023-10-11T02:51:34.493Z,100476.97
2023-10-11T02:54:05.967Z,100485.63
2023-10-11T02:56:47.834Z,100488.22
2023-10-11T02:59:20.524Z,100495.13
2023-10-11T03:02:00.312Z,100491.69
2023-10-11T03:04:31.470Z,100496.88
2023-10-11T03:07:01.241Z,100491.69
2023-10-11T03:09:30.988Z,100489.97
2023-10-11T03:11:58.098Z,100502.94
2023-10-11T03:14:26.232Z,100487.38
2023-10-11T03:17:00.455Z,100489.94
2023-10-11T03:19:27.184Z,100490.81
2023-10-11T03:21:55.286Z,100498.59
2023-10-11T03:24:22.946Z,100491.69
2023-10-11T03:26:49.927Z,100501.22
2023-10-11T03:29:20.301Z,100498.59
2023-10-11T03:31:47.016Z,100501.19
2023-10-11T03:34:13.594Z,100505.53
2023-10-11T03:36:53.276Z,100506.41
2023-10-11T03:39:40.548Z,100516.75
2023-10-11T03:42:08.448Z,100502.06
2023-10-11T03:44:41.332Z,100497.72
2023-10-11T03:47:24.952Z,100500.31
2023-10-11T03:49:51.795Z,100502.03
2023-10-11T03:52:21.091Z,100495.97
2023-10-11T03:54:48.491Z,100510.66
2023-10-11T03:57:18.687Z,100508.06
2023-10-11T03:59:49.404Z,100505.47
2023-10-11T04:02:18.598Z,100503.75
2023-10-11T04:04:49.907Z,100501.97
2023-10-11T04:07:18.025Z,100498.56
2023-10-11T04:09:46.086Z,100507.19
2023-10-11T04:12:13.900Z,100516.72
2023-10-11T04:14:48.314Z,100514.97
2023-10-11T04:17:22.778Z,100493.31
2023-10-11T04:19:49.809Z,100490.69
2023-10-11T04:22:24.931Z,100494.16
2023-10-11T04:24:54.424Z,100500.25
2023-10-11T04:27:25.226Z,100506.31
2023-10-11T04:29:53.362Z,100504.56
2023-10-11T04:32:40.122Z,100504.53
2023-10-11T04:35:22.831Z,100518.34
2023-10-11T04:38:02.416Z,100518.34
2023-10-11T04:40:40.111Z,100507.13
2023-10-11T04:43:26.830Z,100512.28
2023-10-11T04:46:08.488Z,100514.00
2023-10-11T04:48:37.948Z,100514.81
2023-10-11T04:51:08.528Z,100517.44
2023-10-11T04:53:55.772Z,100523.53
2023-10-11T04:56:45.845Z,100520.91
2023-10-11T04:59:21.115Z,100519.16
2023-10-11T05:01:47.763Z,100523.53
2023-10-11T05:04:34.361Z,100519.16
2023-10-11T05:07:08.731Z,100528.63
2023-10-11T05:09:40.826Z,100522.63
2023-10-11T05:12:16.459Z,100534.72
2023-10-11T05:14:45.841Z,100533.84
2023-10-11T05:17:14.335Z,100539.94
2023-10-11T05:19:47.712Z,100532.09
2023-10-11T05:22:24.353Z,100543.34
2023-10-11T05:25:03.170Z,100547.66
2023-10-11T05:27:37.083Z,100550.25
2023-10-11T05:30:11.699Z,100559.81
2023-10-11T05:32:51.140Z,100555.44
2023-10-11T05:35:27.144Z,100561.50
2023-10-11T05:38:14.590Z,100556.31
2023-10-11T05:41:02.251Z,100558.94
2023-10-11T05:43:47.257Z,100549.38
2023-10-11T05:46:32.443Z,100547.63
2023-10-11T05:49:17.818Z,100544.09
2023-10-11T05:51:45.167Z,100538.91
2023-10-11T05:54:12.438Z,100543.22
2023-10-11T05:56:47.357Z,100538.84
2023-10-11T05:59:15.564Z,100550.97
2023-10-11T06:01:45.508Z,100551.84
2023-10-11T06:04:15.478Z,100551.84
2023-10-11T06:06:46.973Z,100557.06
2023-10-11T06:09:20.112Z,100564.00
2023-10-11T06:11:51.239Z,100569.22
2023-10-11T06:14:18.867Z,100571.78
2023-10-11T06:16:59.543Z,100578.72
2023-10-11T06:19:29.626Z,100573.47
2023-10-11T06:22:00.735Z,100569.97
2023-10-11T06:24:34.740Z,100552.66
2023-10-11T06:27:11.606Z,100558.75
2023-10-11T06:29:47.008Z,100559.66
2023-10-11T06:32:20.480Z,100568.22
2023-10-11T06:34:49.039Z,100567.34
2023-10-11T06:37:19.460Z,100563.88
2023-10-11T06:39:47.564Z,100563.84
2023-10-11T06:42:19.744Z,100570.78
2023-10-11T06:44:51.991Z,100571.63
2023-10-11T06:47:20.731Z,100569.88
2023-10-11T06:49:55.842Z,100572.31
2023-10-11T06:52:27.784Z,100561.91
2023-10-11T06:55:16.338Z,100570.56
2023-10-11T06:57:46.726Z,100568.78
2023-10-11T07:00:30.771Z,100572.22
2023-10-11T07:03:11.094Z,100583.44
2023-10-11T07:05:41.898Z,100579.06
2023-10-11T07:08:10.196Z,100580.75
2023-10-11T07:10:46.352Z,100581.63
2023-10-11T07:13:16.229Z,100577.22
2023-10-11T07:15:45.628Z,100579.78
2023-10-11T07:18:26.855Z,100581.44
2023-10-11T07:21:06.910Z,100590.00
2023-10-11T07:23:47.297Z,100581.19
2023-10-11T07:26:32.002Z,100578.50
2023-10-11T07:29:09.438Z,100583.66
2023-10-11T07:31:39.747Z,100577.53
2023-10-11T07:34:08.313Z,100580.91
2023-10-11T07:36:38.186Z,100579.94
2023-10-11T07:39:22.958Z,100579.06
2023-10-11T07:41:50.952Z,100576.50
2023-10-11T07:44:21.029Z,100580.75
2023-10-11T07:46:47.765Z,100589.38
2023-10-11T07:49:17.385Z,100586.72
2023-10-11T07:51:44.137Z,100584.06
2023-10-11T07:54:21.128Z,100584.88
2023-10-11T07:56:58.834Z,100587.38
2023-10-11T07:59:29.557Z,100578.50
2023-10-11T08:01:57.565Z,100573.97
2023-10-11T08:04:29.400Z,100579.94
2023-10-11T08:07:00.510Z,100580.78
2023-10-11T08:09:29.555Z,100584.25
2023-10-11T08:12:00.469Z,100591.22
2023-10-11T08:14:29.920Z,100588.53
2023-10-11T08:17:00.346Z,100598.09
2023-10-11T08:19:27.532Z,100587.41
2023-10-11T08:21:58.605Z,100585.50
2023-10-11T08:24:27.162Z,100581.91
2023-10-11T08:26:54.583Z,100587.91
2023-10-11T08:29:30.940Z,100584.25
2023-10-11T08:32:01.974Z,100586.63
2023-10-11T08:34:29.516Z,100579.25
2023-10-11T08:36:56.736Z,100579.75
2023-10-11T08:39:36.458Z,100580.63
2023-10-11T08:42:12.544Z,100578.84
2023-10-11T08:44:45.590Z,100568.28
2023-10-11T08:47:17.748Z,100572.41
2023-10-11T08:49:49.815Z,100575.78
2023-10-11T08:52:30.507Z,100567.59
2023-10-11T08:55:00.052Z,100572.44
2023-10-11T08:57:27.481Z,100572.63
2023-10-11T09:00:01.261Z,100565.59
2023-10-11T09:02:30.122Z,100568.78
2023-10-11T09:05:19.566Z,100582.19
2023-10-11T09:07:46.674Z,100574.59
2023-10-11T09:10:27.983Z,100573.41
2023-10-11T09:12:59.036Z,100580.69
2023-10-11T09:15:43.744Z,100582.13
2023-10-11T09:18:16.565Z,100571.19
2023-10-11T09:21:10.413Z,100570.91
2023-10-11T09:23:48.243Z,100562.56
2023-10-11T09:26:42.683Z,100569.97
2023-10-11T09:29:14.565Z,100574.53
2023-10-11T09:31:59.346Z,100572.81
2023-10-11T09:34:31.229Z,100573.41
2023-10-11T09:36:58.333Z,100568.38
2023-10-11T09:39:30.315Z,100582.06
2023-10-11T09:42:04.408Z,100573.06
2023-10-11T09:44:38.598Z,100578.44
2023-10-11T09:47:06.621Z,100570.50
2023-10-11T09:49:43.118Z,100573.22
2023-10-11T09:52:11.500Z,100574.22
2023-10-11T09:54:39.419Z,100574.66
2023-10-11T09:57:22.093Z,100569.13
2023-10-11T10:00:24.529Z,100578.31
2023-10-11T10:02:55.991Z,100569.53
2023-10-11T10:05:24.463Z,100561.56
2023-10-11T10:07:54.202Z,100560.53
2023-10-11T10:10:27.636Z,100558.47
2023-10-11T10:12:59.149Z,100560.34
2023-10-11T10:15:33.962Z,100559.03
2023-10-11T10:18:06.790Z,100556.22
2023-10-11T10:20:43.918Z,100540.28
2023-10-11T10:23:36.758Z,100545.94
2023-10-11T10:26:06.066Z,100538.75
2023-10-11T10:28:40.788Z,100536.50
2023-10-11T10:31:11.779Z,100543.81
2023-10-11T10:33:43.115Z,100531.19
2023-10-11T10:36:19.225Z,100528.03
2023-10-11T10:39:00.966Z,100521.63
2023-10-11T10:41:28.097Z,100532.44
2023-10-11T10:44:11.071Z,100526.06
2023-10-11T10:46:55.088Z,100515.69
2023-10-11T10:49:24.593Z,100517.56
2023-10-11T10:51:54.815Z,100511.81
2023-10-11T10:54:26.476Z,100503.72
2023-10-11T10:56:55.258Z,100517.94
2023-10-11T10:59:23.515Z,100513.22
2023-10-11T11:01:51.902Z,100503.44
2023-10-11T11:04:39.494Z,100496.09
2023-10-11T11:07:06.282Z,100493.97
2023-10-11T11:09:33.206Z,100486.72
2023-10-11T11:12:19.288Z,100489.16
2023-10-11T11:14:56.627Z,100483.44
2023-10-11T11:17:24.688Z,100484.94
2023-10-11T11:20:17.513Z,100482.63
2023-10-11T11:22:47.777Z,100478.91
2023-10-11T11:25:29.187Z,100472.34
2023-10-11T11:28:26.330Z,100477.63
2023-10-11T11:30:53.051Z,100477.97
2023-10-11T11:33:31.153Z,100467.94
2023-10-11T11:35:57.928Z,100461.91
2023-10-11T11:38:24.819Z,100450.88
2023-10-11T11:40:52.790Z,100449.94
2023-10-11T11:43:23.800Z,100441.66
2023-10-11T11:45:58.593Z,100439.16
2023-10-11T11:48:25.513Z,100430.56
2023-10-11T11:50:57.284Z,100429.13
2023-10-11T11:53:24.252Z,100421.63
2023-10-11T11:55:50.966Z,100425.63
2023-10-11T11:58:18.614Z,100428.19
2023-10-11T12:01:01.131Z,100431.38
2023-10-11T12:03:27.876Z,100427.56
2023-10-11T12:05:54.603Z,100423.13
2023-10-11T12:08:21.314Z,100423.97
2023-10-11T12:10:50.919Z,100416.19
2023-10-11T12:13:25.097Z,100419.59
2023-10-11T12:15:56.028Z,100416.69
2023-10-11T12:18:36.137Z,100412.50
2023-10-11T12:21:12.079Z,100412.59
2023-10-11T12:23:47.905Z,100402.19
2023-10-11T12:26:19.200Z,100408.09
2023-10-11T12:28:46.949Z,100414.63
2023-10-11T12:31:13.618Z,100407.69
2023-10-11T12:33:40.925Z,100407.72
2023-10-11T12:36:08.026Z,100400.94
2023-10-11T12:38:39.260Z,100393.09
2023-10-11T12:41:06.592Z,100395.31
2023-10-11T12:43:34.026Z,100395.34
2023-10-11T12:46:01.628Z,100389.22
2023-10-11T12:48:28.435Z,100386.72
2023-10-11T12:50:59.101Z,100382.22
2023-10-11T12:53:30.020Z,100384.47
2023-10-11T12:55:56.922Z,100369.38
2023-10-11T12:58:29.029Z,100376.00
2023-10-11T13:01:16.117Z,100376.28
2023-10-11T13:03:44.232Z,100365.69
2023-10-11T13:06:11.737Z,100361.34
2023-10-11T13:08:39.254Z,100360.41
2023-10-11T13:11:06.766Z,100360.53
2023-10-11T13:13:35.200Z,100355.56
2023-10-11T13:16:02.198Z,100357.28
2023-10-11T13:18:34.616Z,100350.09
2023-10-11T13:21:01.278Z,100341.03
2023-10-11T13:23:30.916Z,100341.72
2023-10-11T13:25:57.979Z,100349.09
2023-10-11T13:28:27.790Z,100333.16
2023-10-11T13:30:55.030Z,100330.44
2023-10-11T13:33:21.859Z,100344.47
2023-10-11T13:35:49.204Z,100326.44
2023-10-11T13:38:18.805Z,100329.94
2023-10-11T13:40:46.778Z,100324.47
2023-10-11T13:43:14.155Z,100321.81
2023-10-11T13:45:46.189Z,100322.94
2023-10-11T13:48:13.285Z,100312.97
2023-10-11T13:50:41.089Z,100314.78
2023-10-11T13:53:09.204Z,100319.84
2023-10-11T13:55:42.353Z,100318.09
2023-10-11T13:58:12.473Z,100305.09
2023-10-11T14:00:45.916Z,100320.34
2023-10-11T14:03:16.014Z,100321.41
2023-10-11T14:05:45.805Z,100312.28
2023-10-11T14:08:24.674Z,100311.75
2023-10-11T14:10:56.005Z,100309.69
2023-10-11T14:13:28.282Z,100302.19
2023-10-11T14:15:58.818Z,100304.34
2023-10-11T14:18:28.709Z,100295.06
2023-10-11T14:20:58.163Z,100306.88
2023-10-11T14:23:29.054Z,100300.38
2023-10-11T14:25:57.247Z,100299.88
2023-10-11T14:28:25.782Z,100295.28
2023-10-11T14:30:52.583Z,100296.16
2023-10-11T14:33:23.514Z,100297.03
2023-10-11T14:35:50.281Z,100302.00
2023-10-11T14:38:18.064Z,100296.47
2023-10-11T14:40:48.258Z,100294.34
2023-10-11T14:43:18.457Z,100295.22
2023-10-11T14:45:49.413Z,100296.66
2023-10-11T14:48:16.246Z,100287.63
2023-10-11T14:50:44.053Z,100283.03
2023-10-11T14:53:14.759Z,100284.22
2023-10-11T14:55:45.335Z,100289.00
2023-10-11T14:58:12.350Z,100293.50
2023-10-11T15:00:40.424Z,100294.09
2023-10-11T15:03:07.705Z,100288.66
2023-10-11T15:05:37.919Z,100290.06
2023-10-11T15:08:07.632Z,100279.38
2023-10-11T15:10:35.891Z,100284.66
2023-10-11T15:13:04.574Z,100289.34
2023-10-11T15:15:33.605Z,100284.00
2023-10-11T15:18:02.963Z,100287.88
2023-10-11T15:20:32.153Z,100283.50
2023-10-11T15:23:01.505Z,100262.25
2023-10-11T15:25:28.683Z,100272.53
2023-10-11T15:27:56.530Z,100268.69
2023-10-11T15:30:23.161Z,100276.59
2023-10-11T15:32:56.015Z,100269.75
2023-10-11T15:35:22.814Z,100268.75
2023-10-11T15:37:49.312Z,100264.47
2023-10-11T15:40:21.281Z,100273.09
2023-10-11T15:42:48.168Z,100268.47
2023-10-11T15:45:18.820Z,100272.31
2023-10-11T15:47:49.216Z,100270.06
2023-10-11T15:50:16.760Z,100266.09
2023-10-11T15:52:44.268Z,100267.16
2023-10-11T15:55:11.790Z,100279.28
2023-10-11T15:57:38.813Z,100280.06
2023-10-11T16:00:15.572Z,100280.56
2023-10-11T16:02:45.930Z,100274.53
2023-10-11T16:05:13.618Z,100287.22
2023-10-11T16:07:40.177Z,100291.63
2023-10-11T16:10:10.856Z,100293.53
2023-10-11T16:12:46.670Z,100287.59
2023-10-11T16:15:14.114Z,100284.59
2023-10-11T16:17:43.168Z,100287.19
2023-10-11T16:20:11.019Z,100276.63
2023-10-11T16:22:41.746Z,100291.91
2023-10-11T16:25:09.632Z,100286.38
2023-10-11T16:27:41.333Z,100285.44
2023-10-11T16:30:09.404Z,100287.38
2023-10-11T16:32:37.028Z,100302.09
2023-10-11T16:35:04.927Z,100305.22
2023-10-11T16:37:32.797Z,100301.22
2023-10-11T16:40:01.019Z,100311.41
2023-10-11T16:42:28.843Z,100308.28
2023-10-11T16:44:55.359Z,100314.34
2023-10-11T16:47:21.944Z,100315.13
2023-10-11T16:49:49.671Z,100315.06
2023-10-11T16:52:16.746Z,100319.16
2023-10-11T16:54:43.357Z,100314.72
2023-10-11T16:57:10.513Z,100317.56
2023-10-11T16:59:40.073Z,100316.91
2023-10-11T17:02:06.845Z,100316.31
2023-10-11T17:04:33.741Z,100315.53
2023-10-11T17:07:01.358Z,100310.47
2023-10-11T17:09:31.208Z,100317.34
2023-10-11T17:11:57.666Z,100317.25
2023-10-11T17:14:24.267Z,100320.81
2023-10-11T17:16:50.789Z,100311.41
2023-10-11T17:19:17.393Z,100310.09
2023-10-11T17:21:45.383Z,100312.69
2023-10-11T17:24:12.873Z,100307.31
2023-10-11T17:26:39.498Z,100310.75
2023-10-11T17:29:07.079Z,100316.59
2023-10-11T17:31:34.049Z,100303.25
2023-10-11T17:34:00.919Z,100312.44
2023-10-11T17:36:27.890Z,100308.53
2023-10-11T17:38:54.663Z,100315.81
2023-10-11T17:41:22.232Z,100320.75
2023-10-11T17:43:49.020Z,100317.50
2023-10-11T17:46:15.655Z,100328.28
2023-10-11T17:48:42.341Z,100330.41
2023-10-11T17:51:17.752Z,100324.28
2023-10-11T17:53:44.597Z,100324.03
2023-10-11T17:56:17.765Z,100319.88
2023-10-11T17:58:49.489Z,100325.00
2023-10-11T18:01:19.451Z,100320.75
2023-10-11T18:03:46.298Z,100317.63
2023-10-11T18:06:12.930Z,100325.09
2023-10-11T18:08:39.932Z,100320.31
2023-10-11T18:11:07.257Z,100322.22
2023-10-11T18:13:36.404Z,100327.69
2023-10-11T18:16:03.421Z,100328.59
2023-10-11T18:18:30.018Z,100332.28
2023-10-11T18:20:56.561Z,100332.41
2023-10-11T18:23:23.115Z,100331.06
2023-10-11T18:25:49.857Z,100320.97
2023-10-11T18:28:16.535Z,100325.91
2023-10-11T18:30:43.699Z,100323.81
2023-10-11T18:33:13.153Z,100322.75
2023-10-11T18:35:40.994Z,100320.09
2023-10-11T18:38:07.857Z,100318.75
2023-10-11T18:40:35.760Z,100321.28
2023-10-11T18:43:03.854Z,100326.66
2023-10-11T18:45:32.360Z,100321.50
2023-10-11T18:47:59.193Z,100322.41
2023-10-11T18:50:25.855Z,100314.09
2023-10-11T18:52:56.567Z,100316.09
2023-10-11T18:55:23.735Z,100311.06
2023-10-11T18:57:52.706Z,100315.25
2023-10-11T19:00:23.655Z,100309.47
2023-10-11T19:02:52.397Z,100312.56
2023-10-11T19:05:22.934Z,100312.56
2023-10-11T19:07:52.181Z,100299.81
2023-10-11T19:10:20.353Z,100304.06
2023-10-11T19:12:50.953Z,100294.88
2023-10-11T19:15:18.626Z,100309.97
2023-10-11T19:17:51.697Z,100310.13
2023-10-11T19:20:19.853Z,100312.84
2023-10-11T19:22:49.715Z,100318.13
2023-10-11T19:25:17.570Z,100314.72
2023-10-11T19:27:45.298Z,100299.34
2023-10-11T19:30:17.948Z,100316.84
2023-10-11T19:32:45.388Z,100310.06
2023-10-11T19:35:15.883Z,100313.56
2023-10-11T19:37:44.198Z,100311.03
2023-10-11T19:40:16.505Z,100314.44
2023-10-11T19:42:45.402Z,100308.34
2023-10-11T19:45:19.495Z,100305.72
2023-10-11T19:47:48.239Z,100309.97
2023-10-11T19:50:16.507Z,100307.56
2023-10-11T19:52:44.800Z,100310.38
2023-10-11T19:55:14.436Z,100310.47
2023-10-11T19:57:42.072Z,100311.28
2023-10-11T20:00:09.884Z,100314.72
2023-10-11T20:02:36.932Z,100315.00
2023-10-11T20:05:04.956Z,100321.63
2023-10-11T20:07:32.892Z,100316.56
2023-10-11T20:10:00.281Z,100314.13
2023-10-11T20:12:26.908Z,100315.41
2023-10-11T20:14:53.661Z,100321.59
2023-10-11T20:17:20.500Z,100312.06
2023-10-11T20:19:46.973Z,100313.13
2023-10-11T20:22:13.973Z,100311.47
2023-10-11T20:24:41.522Z,100300.41
2023-10-11T20:27:08.490Z,100304.78
2023-10-11T20:29:35.272Z,100298.91
2023-10-11T20:32:02.014Z,100288.66
2023-10-11T20:34:28.527Z,100294.72
2023-10-11T20:36:55.541Z,100289.59
2023-10-11T20:39:24.054Z,100295.78
2023-10-11T20:41:51.001Z,100300.03
2023-10-11T20:44:18.537Z,100299.31
2023-10-11T20:46:45.359Z,100295.84
2023-10-11T20:49:14.534Z,100298.19
2023-10-11T20:51:42.577Z,100300.09
2023-10-11T20:54:15.091Z,100312.22
2023-10-11T20:56:43.528Z,100314.97
2023-10-11T20:59:15.955Z,100310.38
2023-10-11T21:01:45.452Z,100312.97
2023-10-11T21:04:13.580Z,100302.44
2023-10-11T21:06:40.644Z,100307.66
2023-10-11T21:09:07.411Z,100310.38
2023-10-11T21:11:34.256Z,100308.81
2023-10-11T21:14:04.204Z,100306.34
2023-10-11T21:16:30.700Z,100304.59
2023-10-11T21:18:57.415Z,100293.53
2023-10-11T21:21:24.668Z,100294.72
2023-10-11T21:23:52.393Z,100296.69
2023-10-11T21:26:22.570Z,100307.91
2023-10-11T21:28:54.725Z,100299.88
2023-10-11T21:31:22.169Z,100294.56
2023-10-11T21:33:48.759Z,100296.22
2023-10-11T21:36:17.466Z,100288.56
2023-10-11T21:38:48.332Z,100289.78
2023-10-11T21:41:14.928Z,100287.31
2023-10-11T21:43:41.965Z,100285.84
2023-10-11T21:46:13.630Z,100274.56
2023-10-11T21:48:41.172Z,100277.38
2023-10-11T21:51:12.307Z,100269.50
2023-10-11T21:53:38.787Z,100274.03
2023-10-11T21:56:05.534Z,100268.06
2023-10-11T21:58:32.007Z,100259.53
2023-10-11T22:01:23.120Z,100266.44
2023-10-11T22:03:53.778Z,100261.34
2023-10-11T22:06:21.051Z,100258.72
2023-10-11T22:08:51.924Z,100259.63
2023-10-11T22:11:20.556Z,100252.56
2023-10-11T22:13:48.368Z,100258.84
2023-10-11T22:16:15.466Z,100244.22
2023-10-11T22:18:42.153Z,100260.66
2023-10-11T22:21:16.016Z,100255.38
2023-10-11T22:23:46.158Z,100268.28
2023-10-11T22:26:12.958Z,100270.00
2023-10-11T22:28:39.907Z,100273.50
2023-10-11T22:31:12.816Z,100270.75
2023-10-11T22:33:44.594Z,100263.00
2023-10-11T22:36:16.501Z,100272.38
2023-10-11T22:38:43.689Z,100270.75
2023-10-11T22:41:15.499Z,100268.16
2023-10-11T22:43:44.009Z,100261.22
2023-10-11T22:46:14.722Z,100268.22
2023-10-11T22:48:41.490Z,100263.13
2023-10-11T22:51:08.252Z,100256.25
2023-10-11T22:53:39.964Z,100255.31
2023-10-11T22:56:17.673Z,100251.09
2023-10-11T22:58:44.542Z,100251.97
2023-10-11T23:01:17.858Z,100256.31
2023-10-11T23:03:44.667Z,100257.41
2023-10-11T23:06:11.655Z,100251.34
2023-10-11T23:08:38.607Z,100258.31
2023-10-11T23:11:17.490Z,100258.38
2023-10-11T23:13:49.657Z,100256.59
2023-10-11T23:16:20.886Z,100258.16
2023-10-11T23:18:48.929Z,100249.50
2023-10-11T23:21:22.226Z,100255.72
2023-10-11T23:23:51.836Z,100249.75
2023-10-11T23:26:26.149Z,100249.81
2023-10-11T23:29:04.147Z,100245.59
2023-10-11T23:31:31.770Z,100250.78
2023-10-11T23:33:58.457Z,100252.53
2023-10-11T23:36:26.633Z,100250.75
2023-10-11T23:39:09.069Z,100256.84
2023-10-11T23:41:45.775Z,100252.56
2023-10-11T23:44:20.421Z,100246.53
2023-10-11T23:47:20.685Z,100248.19
2023-10-11T23:49:49.402Z,100236.09
2023-10-11T23:52:21.343Z,100233.44
2023-10-11T23:54:50.542Z,100237.63
2023-10-11T23:57:29.760Z,100238.41
